sensor_id;sensor_type;location;lat;lon;timestamp;P1;durP1;ratioP1;P2;durP2;ratioP2
21517;SDS011;61765;45.794;24.150;2023-04-01T00:02:15;12.85;;;9.65;;
21517;SDS011;61765;45.794;24.150;2023-04-01T00:10:21;12.52;;;8.43;;
21517;SDS011;61765;45.794;24.150;2023-04-01T00:18:30;10.77;;;7.68;;
21517;SDS011;61765;45.794;24.150;2023-04-01T00:26:35;14.40;;;8.65;;
21517;SDS011;61765;45.794;24.150;2023-04-01T00:34:45;10.38;;;7.38;;
21517;SDS011;61765;45.794;24.150;2023-04-01T00:42:50;12.52;;;8.38;;
21517;SDS011;61765;45.794;24.150;2023-04-01T00:50:59;10.90;;;7.65;;
21517;SDS011;61765;45.794;24.150;2023-04-01T00:59:09;9.43;;;7.18;;
21517;SDS011;61765;45.794;24.150;2023-04-01T01:07:24;8.63;;;6.63;;
21517;SDS011;61765;45.794;24.150;2023-04-01T01:15:37;9.77;;;5.83;;
21517;SDS011;61765;45.794;24.150;2023-04-01T01:32:24;8.80;;;6.95;;
21517;SDS011;61765;45.794;24.150;2023-04-01T01:40:41;10.35;;;6.75;;
21517;SDS011;61765;45.794;24.150;2023-04-01T01:48:53;9.30;;;6.90;;
21517;SDS011;61765;45.794;24.150;2023-04-01T01:57:06;12.55;;;6.85;;
21517;SDS011;61765;45.794;24.150;2023-04-01T02:05:19;10.20;;;5.95;;
21517;SDS011;61765;45.794;24.150;2023-04-01T02:13:33;16.48;;;9.88;;
21517;SDS011;61765;45.794;24.150;2023-04-01T02:21:42;12.40;;;8.15;;
21517;SDS011;61765;45.794;24.150;2023-04-01T02:29:51;15.10;;;9.00;;
21517;SDS011;61765;45.794;24.150;2023-04-01T02:37:57;14.48;;;8.55;;
21517;SDS011;61765;45.794;24.150;2023-04-01T02:46:06;13.82;;;8.30;;
21517;SDS011;61765;45.794;24.150;2023-04-01T02:54:11;12.18;;;7.82;;
21517;SDS011;61765;45.794;24.150;2023-04-01T03:02:20;13.15;;;8.38;;
21517;SDS011;61765;45.794;24.150;2023-04-01T03:10:25;10.65;;;7.85;;
21517;SDS011;61765;45.794;24.150;2023-04-01T03:18:34;12.15;;;8.20;;
21517;SDS011;61765;45.794;24.150;2023-04-01T03:26:39;12.20;;;8.20;;
21517;SDS011;61765;45.794;24.150;2023-04-01T03:34:48;11.40;;;7.97;;
21517;SDS011;61765;45.794;24.150;2023-04-01T03:42:56;11.13;;;7.43;;
21517;SDS011;61765;45.794;24.150;2023-04-01T03:51:08;12.48;;;7.93;;
21517;SDS011;61765;45.794;24.150;2023-04-01T03:59:14;13.25;;;8.85;;
21517;SDS011;61765;45.794;24.150;2023-04-01T04:07:22;13.82;;;9.10;;
21517;SDS011;61765;45.794;24.150;2023-04-01T04:15:38;18.92;;;11.48;;
21517;SDS011;61765;45.794;24.150;2023-04-01T04:23:46;13.30;;;9.43;;
21517;SDS011;61765;45.794;24.150;2023-04-01T04:31:53;17.58;;;10.70;;
21517;SDS011;61765;45.794;24.150;2023-04-01T04:40:02;16.20;;;9.95;;
21517;SDS011;61765;45.794;24.150;2023-04-01T04:48:08;16.42;;;11.15;;
21517;SDS011;61765;45.794;24.150;2023-04-01T04:56:21;15.18;;;10.93;;
21517;SDS011;61765;45.794;24.150;2023-04-01T05:04:38;13.07;;;9.25;;
21517;SDS011;61765;45.794;24.150;2023-04-01T05:12:47;14.43;;;9.10;;
21517;SDS011;61765;45.794;24.150;2023-04-01T05:20:55;15.10;;;9.50;;
21517;SDS011;61765;45.794;24.150;2023-04-01T05:29:04;16.08;;;10.02;;
21517;SDS011;61765;45.794;24.150;2023-04-01T05:37:09;14.00;;;9.77;;
21517;SDS011;61765;45.794;24.150;2023-04-01T05:45:18;12.20;;;8.05;;
21517;SDS011;61765;45.794;24.150;2023-04-01T05:53:35;11.88;;;9.10;;
21517;SDS011;61765;45.794;24.150;2023-04-01T06:01:43;14.07;;;9.90;;
21517;SDS011;61765;45.794;24.150;2023-04-01T06:09:49;14.57;;;9.20;;
21517;SDS011;61765;45.794;24.150;2023-04-01T06:26:28;13.50;;;9.77;;
21517;SDS011;61765;45.794;24.150;2023-04-01T06:34:47;15.07;;;9.02;;
21517;SDS011;61765;45.794;24.150;2023-04-01T06:43:08;10.23;;;7.63;;
21517;SDS011;61765;45.794;24.150;2023-04-01T06:51:48;11.30;;;8.90;;
21517;SDS011;61765;45.794;24.150;2023-04-01T07:00:21;14.55;;;10.15;;
21517;SDS011;61765;45.794;24.150;2023-04-01T07:08:36;15.67;;;9.43;;
21517;SDS011;61765;45.794;24.150;2023-04-01T07:16:46;10.30;;;8.17;;
21517;SDS011;61765;45.794;24.150;2023-04-01T07:25:01;10.10;;;7.82;;
21517;SDS011;61765;45.794;24.150;2023-04-01T07:33:11;15.50;;;9.13;;
21517;SDS011;61765;45.794;24.150;2023-04-01T07:41:25;15.82;;;9.43;;
21517;SDS011;61765;45.794;24.150;2023-04-01T07:49:40;17.25;;;9.95;;
21517;SDS011;61765;45.794;24.150;2023-04-01T07:57:53;12.37;;;8.90;;
21517;SDS011;61765;45.794;24.150;2023-04-01T08:06:12;12.90;;;9.32;;
21517;SDS011;61765;45.794;24.150;2023-04-01T08:14:26;10.70;;;8.18;;
21517;SDS011;61765;45.794;24.150;2023-04-01T08:23:13;12.77;;;8.57;;
21517;SDS011;61765;45.794;24.150;2023-04-01T08:31:25;13.52;;;8.27;;
21517;SDS011;61765;45.794;24.150;2023-04-01T08:39:37;9.32;;;6.35;;
21517;SDS011;61765;45.794;24.150;2023-04-01T08:56:25;15.00;;;6.65;;
21517;SDS011;61765;45.794;24.150;2023-04-01T09:04:41;12.35;;;6.13;;
21517;SDS011;61765;45.794;24.150;2023-04-01T09:21:47;8.65;;;6.20;;
21517;SDS011;61765;45.794;24.150;2023-04-01T09:30:10;8.10;;;4.50;;
21517;SDS011;61765;45.794;24.150;2023-04-01T09:38:39;5.70;;;3.83;;
21517;SDS011;61765;45.794;24.150;2023-04-01T09:47:01;7.13;;;4.68;;
21517;SDS011;61765;45.794;24.150;2023-04-01T10:12:46;10.32;;;5.43;;
21517;SDS011;61765;45.794;24.150;2023-04-01T10:21:19;7.35;;;5.22;;
21517;SDS011;61765;45.794;24.150;2023-04-01T10:29:57;10.18;;;5.55;;
21517;SDS011;61765;45.794;24.150;2023-04-01T10:38:33;12.43;;;6.53;;
21517;SDS011;61765;45.794;24.150;2023-04-01T11:22:38;7.55;;;4.20;;
21517;SDS011;61765;45.794;24.150;2023-04-01T11:31:16;6.07;;;4.70;;
21517;SDS011;61765;45.794;24.150;2023-04-01T11:39:34;8.60;;;4.55;;
21517;SDS011;61765;45.794;24.150;2023-04-01T11:48:23;5.32;;;4.28;;
21517;SDS011;61765;45.794;24.150;2023-04-01T11:56:39;5.05;;;3.50;;
21517;SDS011;61765;45.794;24.150;2023-04-01T12:05:07;7.60;;;5.13;;
21517;SDS011;61765;45.794;24.150;2023-04-01T12:13:30;8.13;;;4.72;;
21517;SDS011;61765;45.794;24.150;2023-04-01T12:21:49;9.77;;;6.18;;
21517;SDS011;61765;45.794;24.150;2023-04-01T12:30:11;7.80;;;5.05;;
21517;SDS011;61765;45.794;24.150;2023-04-01T12:38:36;10.70;;;5.88;;
21517;SDS011;61765;45.794;24.150;2023-04-01T12:46:56;9.35;;;5.97;;
21517;SDS011;61765;45.794;24.150;2023-04-01T12:55:25;6.93;;;4.32;;
21517;SDS011;61765;45.794;24.150;2023-04-01T13:04:01;8.98;;;5.00;;
21517;SDS011;61765;45.794;24.150;2023-04-01T13:12:30;9.15;;;4.97;;
21517;SDS011;61765;45.794;24.150;2023-04-01T13:20:48;7.55;;;4.20;;
21517;SDS011;61765;45.794;24.150;2023-04-01T13:29:07;8.23;;;4.80;;
21517;SDS011;61765;45.794;24.150;2023-04-01T13:37:23;7.32;;;4.93;;
21517;SDS011;61765;45.794;24.150;2023-04-01T13:45:42;10.65;;;6.10;;
21517;SDS011;61765;45.794;24.150;2023-04-01T14:11:15;9.40;;;7.13;;
21517;SDS011;61765;45.794;24.150;2023-04-01T14:19:35;8.95;;;6.53;;
21517;SDS011;61765;45.794;24.150;2023-04-01T14:27:55;12.55;;;7.65;;
21517;SDS011;61765;45.794;24.150;2023-04-01T14:36:24;10.80;;;7.43;;
21517;SDS011;61765;45.794;24.150;2023-04-01T14:44:50;13.65;;;8.73;;
21517;SDS011;61765;45.794;24.150;2023-04-01T14:53:16;11.07;;;8.10;;
21517;SDS011;61765;45.794;24.150;2023-04-01T15:01:34;12.73;;;9.05;;
21517;SDS011;61765;45.794;24.150;2023-04-01T15:09:54;12.45;;;9.13;;
21517;SDS011;61765;45.794;24.150;2023-04-01T15:18:10;14.10;;;9.50;;
21517;SDS011;61765;45.794;24.150;2023-04-01T15:26:28;15.30;;;10.52;;
21517;SDS011;61765;45.794;24.150;2023-04-01T15:34:44;18.48;;;12.60;;
21517;SDS011;61765;45.794;24.150;2023-04-01T15:43:05;17.48;;;11.93;;
21517;SDS011;61765;45.794;24.150;2023-04-01T15:51:26;20.50;;;12.82;;
21517;SDS011;61765;45.794;24.150;2023-04-01T15:59:57;13.38;;;9.25;;
21517;SDS011;61765;45.794;24.150;2023-04-01T16:08:19;12.60;;;7.72;;
21517;SDS011;61765;45.794;24.150;2023-04-01T16:16:53;11.90;;;7.00;;
21517;SDS011;61765;45.794;24.150;2023-04-01T16:25:14;12.00;;;8.00;;
21517;SDS011;61765;45.794;24.150;2023-04-01T16:33:28;12.63;;;8.68;;
21517;SDS011;61765;45.794;24.150;2023-04-01T16:41:47;11.98;;;7.85;;
21517;SDS011;61765;45.794;24.150;2023-04-01T16:49:59;13.13;;;8.73;;
21517;SDS011;61765;45.794;24.150;2023-04-01T16:58:13;11.85;;;8.35;;
21517;SDS011;61765;45.794;24.150;2023-04-01T17:06:28;11.93;;;8.93;;
21517;SDS011;61765;45.794;24.150;2023-04-01T17:14:42;15.38;;;10.02;;
21517;SDS011;61765;45.794;24.150;2023-04-01T17:22:54;18.63;;;12.88;;
21517;SDS011;61765;45.794;24.150;2023-04-01T17:31:05;19.38;;;13.27;;
21517;SDS011;61765;45.794;24.150;2023-04-01T17:39:27;18.55;;;13.27;;
21517;SDS011;61765;45.794;24.150;2023-04-01T17:47:48;20.55;;;14.20;;
21517;SDS011;61765;45.794;24.150;2023-04-01T17:56:03;22.20;;;16.90;;
21517;SDS011;61765;45.794;24.150;2023-04-01T18:04:18;26.88;;;17.00;;
21517;SDS011;61765;45.794;24.150;2023-04-01T18:12:50;22.67;;;16.35;;
21517;SDS011;61765;45.794;24.150;2023-04-01T18:21:13;17.42;;;11.23;;
21517;SDS011;61765;45.794;24.150;2023-04-01T18:29:27;12.15;;;7.72;;
21517;SDS011;61765;45.794;24.150;2023-04-01T18:37:42;10.23;;;6.38;;
21517;SDS011;61765;45.794;24.150;2023-04-01T18:45:54;10.35;;;6.28;;
21517;SDS011;61765;45.794;24.150;2023-04-01T18:54:05;7.43;;;4.80;;
21517;SDS011;61765;45.794;24.150;2023-04-01T19:02:23;7.82;;;4.20;;
21517;SDS011;61765;45.794;24.150;2023-04-01T19:10:37;6.18;;;3.90;;
21517;SDS011;61765;45.794;24.150;2023-04-01T19:18:55;5.05;;;4.15;;
21517;SDS011;61765;45.794;24.150;2023-04-01T19:27:12;6.15;;;4.50;;
21517;SDS011;61765;45.794;24.150;2023-04-01T19:35:31;7.50;;;4.78;;
21517;SDS011;61765;45.794;24.150;2023-04-01T19:43:47;6.10;;;3.65;;
21517;SDS011;61765;45.794;24.150;2023-04-01T19:52:03;5.25;;;3.95;;
21517;SDS011;61765;45.794;24.150;2023-04-01T20:00:15;6.93;;;4.15;;
21517;SDS011;61765;45.794;24.150;2023-04-01T20:08:31;4.90;;;3.78;;
21517;SDS011;61765;45.794;24.150;2023-04-01T20:16:49;7.97;;;4.53;;
21517;SDS011;61765;45.794;24.150;2023-04-01T20:25:04;5.40;;;3.50;;
21517;SDS011;61765;45.794;24.150;2023-04-01T20:42:02;5.93;;;3.33;;
21517;SDS011;61765;45.794;24.150;2023-04-01T20:50:27;8.55;;;4.65;;
21517;SDS011;61765;45.794;24.150;2023-04-01T20:58:41;6.10;;;3.90;;
21517;SDS011;61765;45.794;24.150;2023-04-01T21:15:38;3.75;;;2.42;;
21517;SDS011;61765;45.794;24.150;2023-04-01T21:24:02;3.75;;;2.55;;
21517;SDS011;61765;45.794;24.150;2023-04-01T21:41:03;5.37;;;3.07;;
21517;SDS011;61765;45.794;24.150;2023-04-01T21:49:33;1.95;;;1.75;;
21517;SDS011;61765;45.794;24.150;2023-04-01T22:06:39;3.17;;;1.65;;
21517;SDS011;61765;45.794;24.150;2023-04-01T22:14:47;2.33;;;1.60;;
21517;SDS011;61765;45.794;24.150;2023-04-01T22:23:10;1.50;;;1.00;;
21517;SDS011;61765;45.794;24.150;2023-04-01T22:31:26;1.30;;;0.85;;
21517;SDS011;61765;45.794;24.150;2023-04-01T22:39:49;1.65;;;0.90;;
21517;SDS011;61765;45.794;24.150;2023-04-01T22:48:05;1.65;;;0.82;;
21517;SDS011;61765;45.794;24.150;2023-04-01T22:56:20;1.17;;;1.07;;
21517;SDS011;61765;45.794;24.150;2023-04-01T23:04:32;1.83;;;1.13;;
21517;SDS011;61765;45.794;24.150;2023-04-01T23:12:46;2.08;;;1.05;;
21517;SDS011;61765;45.794;24.150;2023-04-01T23:20:59;1.23;;;0.80;;
21517;SDS011;61765;45.794;24.150;2023-04-01T23:29:19;2.10;;;1.67;;
21517;SDS011;61765;45.794;24.150;2023-04-01T23:37:27;3.60;;;1.30;;
21517;SDS011;61765;45.794;24.150;2023-04-01T23:45:35;1.45;;;1.10;;
21517;SDS011;61765;45.794;24.150;2023-04-01T23:53:41;3.90;;;1.50;;
